createdAt,value
2018-05-08T00:00:08.034Z,17.30
2018-05-08T00:02:36.332Z,17.40
2018-05-08T00:05:03.844Z,17.30
2018-05-08T00:07:31.466Z,17.30
2018-05-08T00:09:58.990Z,17.30
2018-05-08T00:12:27.302Z,17.20
2018-05-08T00:14:54.856Z,17.20
2018-05-08T00:17:22.407Z,17.10
2018-05-08T00:19:49.926Z,17.10
2018-05-08T00:22:17.448Z,17.00
2018-05-08T00:24:44.983Z,16.90
2018-05-08T00:27:12.498Z,16.90
2018-05-08T00:29:40.028Z,16.70
2018-05-08T00:32:07.562Z,16.60
2018-05-08T00:34:35.120Z,16.60
2018-05-08T00:37:02.646Z,16.50
2018-05-08T00:39:30.156Z,16.40
2018-05-08T00:41:57.678Z,16.30
2018-05-08T00:44:25.992Z,16.20
2018-05-08T00:46:53.500Z,16.10
2018-05-08T00:49:21.780Z,16.00
2018-05-08T00:51:49.384Z,16.00
2018-05-08T00:54:16.903Z,16.00
2018-05-08T00:56:44.514Z,15.90
2018-05-08T00:59:12.064Z,15.90
2018-05-08T01:01:39.580Z,15.80
2018-05-08T01:04:07.112Z,15.80
2018-05-08T01:06:34.645Z,15.70
2018-05-08T01:09:02.192Z,15.70
2018-05-08T01:11:29.722Z,15.60
2018-05-08T01:13:58.030Z,15.60
2018-05-08T01:16:25.550Z,15.50
2018-05-08T01:18:53.068Z,15.50
2018-05-08T01:21:20.612Z,15.50
2018-05-08T01:23:48.124Z,15.40
2018-05-08T01:26:15.634Z,15.40
2018-05-08T01:28:43.167Z,15.40
2018-05-08T01:31:11.480Z,15.40
2018-05-08T01:33:39.042Z,15.40
2018-05-08T01:36:06.574Z,15.40
2018-05-08T01:38:34.863Z,15.50
2018-05-08T01:41:02.433Z,15.40
2018-05-08T01:43:29.978Z,15.40
2018-05-08T01:45:57.493Z,15.50
2018-05-08T01:48:25.740Z,15.60
2018-05-08T01:50:53.267Z,15.50
2018-05-08T01:53:21.546Z,15.50
2018-05-08T01:55:49.827Z,15.50
2018-05-08T01:58:18.131Z,15.50
2018-05-08T02:00:45.660Z,15.50
2018-05-08T02:03:13.960Z,15.40
2018-05-08T02:05:41.493Z,15.40
2018-05-08T02:08:09.785Z,15.40
2018-05-08T02:10:37.309Z,15.40
2018-05-08T02:13:04.919Z,15.40
2018-05-08T02:15:32.437Z,15.30
2018-05-08T02:18:00.731Z,15.30
2018-05-08T02:20:29.336Z,15.20
2018-05-08T02:22:56.775Z,15.20
2018-05-08T02:25:25.076Z,15.20
2018-05-08T02:27:52.612Z,15.20
2018-05-08T02:30:20.885Z,15.10
2018-05-08T02:32:49.190Z,15.10
2018-05-08T02:35:16.716Z,15.10
2018-05-08T02:37:44.994Z,15.10
2018-05-08T02:40:13.306Z,15.10
2018-05-08T02:42:40.954Z,15.10
2018-05-08T02:45:08.464Z,15.10
2018-05-08T02:47:35.975Z,15.10
2018-05-08T02:50:03.539Z,15.10
2018-05-08T02:52:31.068Z,15.10
2018-05-08T02:54:59.458Z,15.00
2018-05-08T02:57:26.931Z,15.00
2018-05-08T02:59:54.451Z,15.00
2018-05-08T03:02:21.976Z,15.00
2018-05-08T03:04:49.533Z,14.90
2018-05-08T03:07:17.040Z,14.90
2018-05-08T03:09:45.351Z,14.90
2018-05-08T03:12:12.876Z,14.90
2018-05-08T03:14:41.194Z,14.80
2018-05-08T03:17:08.742Z,14.80
2018-05-08T03:19:36.264Z,14.80
2018-05-08T03:22:03.776Z,14.80
2018-05-08T03:24:31.322Z,14.80
2018-05-08T03:26:58.908Z,14.70
2018-05-08T03:29:26.390Z,14.70
2018-05-08T03:31:53.930Z,14.70
2018-05-08T03:34:21.449Z,14.60
2018-05-08T03:36:49.724Z,14.60
2018-05-08T03:39:18.010Z,14.60
2018-05-08T03:41:45.578Z,14.60
2018-05-08T03:44:13.099Z,14.60
2018-05-08T03:46:40.603Z,14.60
2018-05-08T03:49:08.158Z,14.60
2018-05-08T03:51:35.707Z,14.60
2018-05-08T03:54:03.275Z,14.50
2018-05-08T03:56:30.836Z,14.50
2018-05-08T03:58:58.405Z,14.50
2018-05-08T04:01:37.620Z,14.50
2018-05-08T04:04:17.149Z,14.50
2018-05-08T04:07:06.403Z,14.50
2018-05-08T04:09:33.924Z,14.40
2018-05-08T04:12:01.446Z,14.40
2018-05-08T04:14:29.766Z,14.40
2018-05-08T04:16:57.272Z,14.40
2018-05-08T04:19:25.569Z,14.40
2018-05-08T04:21:53.106Z,14.40
2018-05-08T04:24:21.625Z,14.40
2018-05-08T04:26:49.197Z,14.40
2018-05-08T04:29:16.720Z,14.40
2018-05-08T04:31:45.002Z,14.40
2018-05-08T04:34:12.581Z,14.40
2018-05-08T04:36:40.130Z,14.40
2018-05-08T04:39:07.683Z,14.40
2018-05-08T04:41:35.973Z,14.50
2018-05-08T04:44:03.539Z,14.40
2018-05-08T04:46:31.203Z,14.50
2018-05-08T04:48:58.757Z,14.50
2018-05-08T04:51:26.514Z,14.50
2018-05-08T04:53:54.032Z,14.60
2018-05-08T04:56:21.643Z,14.70
2018-05-08T04:58:49.309Z,14.70
2018-05-08T05:01:16.865Z,14.80
2018-05-08T05:03:44.377Z,14.90
2018-05-08T05:06:11.911Z,14.90
2018-05-08T05:08:39.435Z,15.00
2018-05-08T05:11:07.040Z,15.00
2018-05-08T05:13:35.255Z,15.00
2018-05-08T05:16:03.555Z,15.00
2018-05-08T05:18:31.095Z,15.00
2018-05-08T05:20:59.487Z,15.20
2018-05-08T05:23:27.045Z,15.20
2018-05-08T05:25:54.647Z,15.20
2018-05-08T05:28:23.768Z,15.40
2018-05-08T05:30:51.285Z,15.40
2018-05-08T05:33:18.802Z,15.50
2018-05-08T05:35:47.090Z,15.70
2018-05-08T05:38:15.500Z,15.90
2018-05-08T05:40:43.028Z,15.80
2018-05-08T05:43:11.311Z,16.10
2018-05-08T05:45:39.581Z,16.30
2018-05-08T05:48:07.871Z,16.40
2018-05-08T05:50:36.157Z,16.60
2018-05-08T05:53:03.675Z,16.60
2018-05-08T05:55:31.287Z,16.70
2018-05-08T05:57:58.824Z,16.90
2018-05-08T06:00:27.100Z,17.20
2018-05-08T06:02:55.387Z,17.30
2018-05-08T06:05:22.922Z,17.30
2018-05-08T06:07:51.239Z,17.50
2018-05-08T06:10:18.768Z,17.50
2018-05-08T06:12:47.071Z,17.70
2018-05-08T06:15:14.606Z,17.70
2018-05-08T06:17:42.885Z,17.80
2018-05-08T06:20:11.176Z,17.80
2018-05-08T06:22:38.759Z,17.80
2018-05-08T06:25:06.315Z,17.80
2018-05-08T06:27:33.843Z,17.70
2018-05-08T06:30:02.124Z,17.70
2018-05-08T06:32:30.528Z,17.70
2018-05-08T06:34:58.063Z,17.70
2018-05-08T06:37:26.366Z,17.80
2018-05-08T06:39:53.953Z,17.80
2018-05-08T06:42:21.490Z,17.90
2018-05-08T06:44:49.128Z,17.90
2018-05-08T06:47:16.590Z,18.00
2018-05-08T06:49:44.171Z,18.10
2018-05-08T06:52:11.719Z,18.10
2018-05-08T06:54:39.242Z,18.10
2018-05-08T06:57:06.858Z,18.10
2018-05-08T06:59:34.380Z,18.20
2018-05-08T07:02:02.697Z,18.10
2018-05-08T07:04:30.239Z,18.10
2018-05-08T07:06:57.759Z,18.20
2018-05-08T07:09:25.290Z,18.30
2018-05-08T07:11:52.822Z,18.40
2018-05-08T07:14:20.428Z,18.50
2018-05-08T07:16:47.947Z,18.60
2018-05-08T07:19:15.477Z,18.70
2018-05-08T07:21:43.780Z,18.90
2018-05-08T07:24:11.306Z,18.90
2018-05-08T07:26:40.032Z,19.10
2018-05-08T07:29:07.568Z,19.10
2018-05-08T07:31:36.166Z,19.30
2018-05-08T07:34:03.706Z,19.20
2018-05-08T07:36:32.153Z,19.50
2018-05-08T07:38:59.679Z,19.40
2018-05-08T07:41:27.227Z,19.50
2018-05-08T07:43:54.742Z,19.60
2018-05-08T07:46:23.014Z,19.80
2018-05-08T07:48:50.563Z,19.80
2018-05-08T07:51:18.177Z,19.90
2018-05-08T07:53:45.969Z,20.00
2018-05-08T07:56:13.504Z,20.10
2018-05-08T07:58:41.034Z,20.20
2018-05-08T08:01:08.552Z,20.30
2018-05-08T08:03:36.074Z,20.40
2018-05-08T08:06:04.351Z,20.80
2018-05-08T08:08:32.722Z,20.90
2018-05-08T08:11:01.185Z,21.20
2018-05-08T08:13:28.703Z,21.20
2018-05-08T08:15:56.221Z,21.50
2018-05-08T08:18:24.529Z,22.10
2018-05-08T08:20:52.057Z,22.00
2018-05-08T08:23:20.357Z,22.50
2018-05-08T08:25:47.893Z,22.50
2018-05-08T08:28:16.187Z,23.00
2018-05-08T08:30:43.728Z,22.90
2018-05-08T08:33:12.044Z,23.40
2018-05-08T08:35:39.645Z,23.40
2018-05-08T08:38:07.186Z,23.60
2018-05-08T08:40:34.733Z,23.80
2018-05-08T08:43:02.267Z,24.00
2018-05-08T08:45:29.797Z,24.10
2018-05-08T08:47:58.264Z,24.60
2018-05-08T08:50:25.645Z,24.60
2018-05-08T08:52:53.960Z,24.80
2018-05-08T08:55:21.498Z,24.80
2018-05-08T08:57:49.802Z,25.20
2018-05-08T09:00:17.313Z,25.20
2018-05-08T09:02:45.615Z,25.40
2018-05-08T09:05:13.898Z,25.40
2018-05-08T09:07:41.470Z,25.30
2018-05-08T09:10:09.010Z,25.40
2018-05-08T09:12:37.318Z,25.60
2018-05-08T09:15:04.852Z,25.60
2018-05-08T09:17:32.377Z,25.50
2018-05-08T09:20:00.669Z,26.20
2018-05-08T09:22:28.990Z,26.40
2018-05-08T09:24:56.567Z,26.40
2018-05-08T09:27:24.113Z,26.60
2018-05-08T09:29:51.685Z,26.90
2018-05-08T09:32:19.344Z,27.20
2018-05-08T09:34:46.864Z,27.10
2018-05-08T09:37:15.157Z,26.50
2018-05-08T09:39:42.695Z,26.50
2018-05-08T09:42:11.169Z,27.10
2018-05-08T09:44:39.454Z,27.50
2018-05-08T09:47:07.750Z,27.60
2018-05-08T09:49:35.317Z,27.60
2018-05-08T09:52:02.882Z,27.40
2018-05-08T09:54:30.441Z,27.20
2018-05-08T09:56:57.960Z,27.00
2018-05-08T09:59:25.487Z,27.10
2018-05-08T10:01:53.024Z,27.50
2018-05-08T10:04:20.540Z,27.80
2018-05-08T10:06:48.123Z,28.10
2018-05-08T10:09:15.607Z,28.20
2018-05-08T10:11:43.137Z,28.60
2018-05-08T10:14:11.415Z,28.80
2018-05-08T10:16:39.708Z,28.90
2018-05-08T10:19:07.227Z,28.80
2018-05-08T10:21:34.763Z,28.80
2018-05-08T10:24:02.299Z,29.10
2018-05-08T10:26:29.825Z,29.30
2018-05-08T10:28:58.117Z,29.60
2018-05-08T10:31:25.642Z,29.60
2018-05-08T10:33:54.681Z,29.80
2018-05-08T10:36:22.247Z,29.80
2018-05-08T10:38:49.772Z,29.90
2018-05-08T10:41:18.064Z,29.80
2018-05-08T10:43:46.347Z,30.00
2018-05-08T10:46:14.087Z,30.00
2018-05-08T10:48:42.364Z,30.30
2018-05-08T10:51:10.655Z,29.90
2018-05-08T10:53:38.957Z,29.80
2018-05-08T10:56:06.680Z,29.80
2018-05-08T10:58:34.188Z,30.30
2018-05-08T11:01:01.741Z,30.80
2018-05-08T11:03:29.257Z,31.00
2018-05-08T11:05:57.541Z,30.80
2018-05-08T11:08:25.248Z,30.80
2018-05-08T11:10:52.768Z,30.70
2018-05-08T11:13:21.048Z,31.00
2018-05-08T11:15:49.352Z,31.10
2018-05-08T11:18:16.880Z,31.10
2018-05-08T11:20:44.403Z,31.30
2018-05-08T11:23:11.934Z,31.50
2018-05-08T11:25:39.500Z,31.70
2018-05-08T11:28:07.026Z,31.90
2018-05-08T11:30:35.340Z,32.00
2018-05-08T11:33:02.864Z,32.00
2018-05-08T11:35:31.178Z,32.70
2018-05-08T11:37:58.715Z,32.60
2018-05-08T11:40:27.005Z,32.70
2018-05-08T11:42:54.526Z,32.60
2018-05-08T11:45:22.058Z,32.90
2018-05-08T11:47:49.596Z,32.90
2018-05-08T11:50:17.130Z,33.00
2018-05-08T11:52:45.415Z,32.70
2018-05-08T11:55:12.992Z,32.60
2018-05-08T11:57:40.526Z,32.10
2018-05-08T12:00:08.824Z,32.80
2018-05-08T12:02:36.423Z,32.80
2018-05-08T12:05:03.920Z,33.20
2018-05-08T12:07:32.224Z,33.50
2018-05-08T12:09:59.756Z,33.50
2018-05-08T12:12:28.040Z,33.40
2018-05-08T12:14:55.736Z,33.30
2018-05-08T12:17:23.182Z,33.40
2018-05-08T12:19:50.750Z,33.30
2018-05-08T12:22:18.330Z,33.40
2018-05-08T12:24:45.872Z,33.40
2018-05-08T12:27:13.408Z,33.80
2018-05-08T12:29:41.705Z,33.90
2018-05-08T12:32:09.231Z,33.90
2018-05-08T12:34:37.524Z,33.60
2018-05-08T12:37:05.224Z,33.60
2018-05-08T12:39:32.752Z,33.70
2018-05-08T12:42:00.296Z,33.90
2018-05-08T12:44:28.592Z,34.10
2018-05-08T12:46:56.125Z,34.00
2018-05-08T12:49:24.436Z,34.00
2018-05-08T12:51:51.978Z,34.00
2018-05-08T12:54:20.270Z,34.30
2018-05-08T12:56:47.783Z,34.20
2018-05-08T12:59:15.329Z,34.60
2018-05-08T13:01:42.866Z,34.70
2018-05-08T13:04:10.391Z,34.70
2018-05-08T13:06:38.689Z,34.40
2018-05-08T13:09:06.223Z,34.40
2018-05-08T13:11:34.511Z,34.00
2018-05-08T13:14:02.093Z,34.10
2018-05-08T13:16:29.621Z,33.80
2018-05-08T13:18:57.923Z,33.40
2018-05-08T13:21:25.453Z,33.30
2018-05-08T13:23:53.755Z,32.60
2018-05-08T13:26:21.325Z,32.50
2018-05-08T13:28:48.857Z,31.70
2018-05-08T13:31:17.151Z,31.40
2018-05-08T13:33:44.671Z,31.40
2018-05-08T13:36:12.192Z,32.10
2018-05-08T13:38:39.719Z,32.30
2018-05-08T13:41:08.028Z,32.30
2018-05-08T13:43:35.571Z,32.30
2018-05-08T13:46:03.093Z,31.70
2018-05-08T13:48:30.621Z,31.70
2018-05-08T13:50:58.167Z,31.70
2018-05-08T13:53:25.815Z,31.50
2018-05-08T13:55:53.375Z,31.00
2018-05-08T13:58:20.902Z,31.10
2018-05-08T14:00:48.447Z,31.30
2018-05-08T14:03:15.978Z,31.70
2018-05-08T14:05:43.491Z,32.10
2018-05-08T14:08:11.801Z,31.60
2018-05-08T14:10:39.454Z,31.60
2018-05-08T14:13:07.001Z,31.20
2018-05-08T14:15:35.287Z,31.20
2018-05-08T14:18:03.688Z,31.70
2018-05-08T14:20:31.223Z,31.60
2018-05-08T14:22:59.518Z,32.40
2018-05-08T14:25:27.028Z,32.30
2018-05-08T14:27:55.386Z,31.90
2018-05-08T14:30:22.908Z,31.80
2018-05-08T14:32:50.444Z,31.00
2018-05-08T14:35:18.753Z,30.70
2018-05-08T14:37:46.314Z,30.70
2018-05-08T14:40:13.829Z,30.90
2018-05-08T14:42:41.357Z,30.90
2018-05-08T14:45:08.897Z,31.00
2018-05-08T14:47:36.432Z,31.00
2018-05-08T14:50:04.735Z,30.90
2018-05-08T14:52:32.264Z,30.90
2018-05-08T14:55:00.548Z,30.90
2018-05-08T14:57:28.854Z,30.90
2018-05-08T14:59:56.417Z,30.90
2018-05-08T15:02:23.938Z,30.70
2018-05-08T15:04:52.247Z,29.70
2018-05-08T15:07:19.768Z,29.70
2018-05-08T15:09:47.482Z,29.10
2018-05-08T15:12:15.008Z,28.90
2018-05-08T15:14:43.313Z,28.50
2018-05-08T15:17:10.845Z,28.50
2018-05-08T15:19:39.141Z,28.40
2018-05-08T15:22:06.664Z,28.40
2018-05-08T15:24:34.209Z,28.20
2018-05-08T15:27:01.738Z,28.00
2018-05-08T15:29:29.260Z,27.80
2018-05-08T15:31:57.548Z,27.80
2018-05-08T15:34:25.850Z,27.70
2018-05-08T15:36:53.384Z,27.60
2018-05-08T15:39:21.667Z,27.70
2018-05-08T15:41:49.193Z,27.70
2018-05-08T15:44:16.813Z,27.80
2018-05-08T15:46:44.328Z,27.90
2018-05-08T15:49:12.611Z,28.00
2018-05-08T15:51:40.904Z,28.10
2018-05-08T15:54:08.471Z,28.00
2018-05-08T15:56:36.084Z,28.10
2018-05-08T15:59:03.605Z,28.10
2018-05-08T16:01:31.124Z,28.20
2018-05-08T16:03:59.527Z,28.10
2018-05-08T16:06:27.051Z,28.10
2018-05-08T16:08:54.635Z,28.10
2018-05-08T16:11:22.944Z,28.10
2018-05-08T16:13:50.505Z,28.10
2018-05-08T16:16:18.023Z,28.20
2018-05-08T16:18:46.327Z,28.10
2018-05-08T16:21:13.838Z,28.10
2018-05-08T16:23:42.175Z,28.00
2018-05-08T16:26:09.746Z,28.00
2018-05-08T16:28:37.263Z,27.60
2018-05-08T16:31:05.543Z,27.10
2018-05-08T16:33:33.849Z,27.00
2018-05-08T16:36:01.407Z,27.00
2018-05-08T16:38:28.960Z,27.10
2018-05-08T16:40:56.489Z,27.10
2018-05-08T16:43:24.797Z,27.00
2018-05-08T16:45:52.392Z,26.90
2018-05-08T16:48:20.001Z,27.00
2018-05-08T16:50:47.486Z,26.90
2018-05-08T16:53:15.125Z,26.90
2018-05-08T16:55:43.499Z,26.90
2018-05-08T16:58:11.822Z,26.90
2018-05-08T17:00:39.397Z,26.90
2018-05-08T17:03:08.068Z,26.90
2018-05-08T17:05:35.601Z,26.80
2018-05-08T17:08:03.112Z,26.70
2018-05-08T17:10:30.727Z,26.80
2018-05-08T17:12:58.295Z,26.70
2018-05-08T17:15:25.836Z,26.70
2018-05-08T17:17:54.143Z,26.70
2018-05-08T17:20:21.673Z,26.70
2018-05-08T17:22:49.986Z,26.60
2018-05-08T17:25:17.549Z,26.50
2018-05-08T17:27:45.065Z,26.60
2018-05-08T17:30:13.346Z,26.50
2018-05-08T17:32:41.650Z,26.50
2018-05-08T17:35:09.182Z,26.40
2018-05-08T17:37:37.484Z,26.40
2018-05-08T17:40:05.058Z,26.40
2018-05-08T17:42:32.573Z,26.40
2018-05-08T17:45:00.872Z,26.40
2018-05-08T17:47:28.461Z,26.30
2018-05-08T17:49:55.990Z,26.30
2018-05-08T17:52:23.517Z,26.20
2018-05-08T17:54:52.554Z,26.20
2018-05-08T17:57:20.128Z,26.20
2018-05-08T17:59:47.655Z,26.20
2018-05-08T18:02:16.067Z,26.20
2018-05-08T18:04:43.592Z,26.10
2018-05-08T18:07:11.911Z,26.10
2018-05-08T18:09:39.527Z,26.10
2018-05-08T18:12:07.005Z,26.00
2018-05-08T18:14:35.409Z,25.90
2018-05-08T18:17:02.930Z,25.90
2018-05-08T18:19:31.229Z,25.90
2018-05-08T18:21:58.749Z,25.80
2018-05-08T18:24:26.296Z,25.80
2018-05-08T18:26:53.812Z,25.70
2018-05-08T18:29:21.381Z,25.70
2018-05-08T18:31:48.909Z,25.70
2018-05-08T18:34:17.232Z,25.50
2018-05-08T18:36:44.778Z,25.50
2018-05-08T18:39:12.344Z,25.50
2018-05-08T18:41:39.893Z,25.40
2018-05-08T18:44:07.417Z,25.40
2018-05-08T18:46:35.847Z,25.20
2018-05-08T18:49:03.373Z,25.20
2018-05-08T18:51:31.652Z,25.10
2018-05-08T18:53:59.958Z,24.90
2018-05-08T18:56:27.508Z,24.90
2018-05-08T18:58:55.042Z,24.90
2018-05-08T19:01:23.341Z,24.60
2018-05-08T19:03:51.068Z,24.60
2018-05-08T19:06:18.470Z,24.50
2018-05-08T19:08:46.014Z,24.40
2018-05-08T19:11:19.309Z,24.30
2018-05-08T19:13:46.885Z,24.10
2018-05-08T19:16:15.149Z,23.90
2018-05-08T19:18:48.456Z,23.90
2018-05-08T19:21:15.989Z,23.80
2018-05-08T19:23:49.931Z,23.60
2018-05-08T19:26:17.463Z,23.50
2018-05-08T19:28:51.590Z,23.30
2018-05-08T19:31:19.120Z,23.30
2018-05-08T19:33:46.644Z,23.20
2018-05-08T19:36:19.989Z,23.10
2018-05-08T19:38:48.327Z,23.00
2018-05-08T19:41:15.979Z,22.90
2018-05-08T19:43:43.526Z,22.80
2018-05-08T19:46:11.053Z,22.80
2018-05-08T19:48:39.334Z,22.60
2018-05-08T19:51:07.765Z,22.60
2018-05-08T19:53:35.299Z,22.50
2018-05-08T19:56:02.833Z,22.50
2018-05-08T19:58:31.128Z,22.50
2018-05-08T20:00:58.650Z,22.50
2018-05-08T20:03:26.945Z,22.50
2018-05-08T20:05:55.241Z,22.50
2018-05-08T20:08:22.762Z,22.50
2018-05-08T20:10:50.352Z,22.50
2018-05-08T20:13:18.701Z,22.40
2018-05-08T20:15:46.243Z,22.40
2018-05-08T20:18:13.789Z,22.30
2018-05-08T20:20:41.317Z,22.30
2018-05-08T20:23:08.839Z,22.30
2018-05-08T20:25:36.360Z,22.10
2018-05-08T20:28:03.909Z,22.10
2018-05-08T20:30:31.439Z,22.00
2018-05-08T20:32:59.727Z,21.70
2018-05-08T20:35:28.021Z,21.60
2018-05-08T20:37:55.563Z,21.50
2018-05-08T20:40:23.869Z,21.40
2018-05-08T20:42:51.500Z,21.40
2018-05-08T20:45:19.796Z,21.20
2018-05-08T20:47:47.310Z,21.20
2018-05-08T20:50:14.870Z,21.10
2018-05-08T20:52:42.407Z,21.00
2018-05-08T20:55:09.925Z,20.90
2018-05-08T20:57:38.327Z,20.80
2018-05-08T21:00:05.846Z,20.70
2018-05-08T21:02:34.143Z,20.60
2018-05-08T21:05:02.550Z,20.60
2018-05-08T21:07:30.105Z,20.60
2018-05-08T21:09:57.676Z,20.50
2018-05-08T21:12:25.212Z,20.50
2018-05-08T21:14:52.739Z,20.40
2018-05-08T21:17:20.270Z,20.30
2018-05-08T21:19:47.811Z,20.30
2018-05-08T21:22:15.348Z,20.20
2018-05-08T21:24:42.888Z,20.10
2018-05-08T21:27:11.200Z,20.10
2018-05-08T21:29:44.314Z,20.10
2018-05-08T21:32:11.857Z,20.10
2018-05-08T21:34:39.385Z,20.00
2018-05-08T21:37:07.678Z,19.90
2018-05-08T21:39:35.250Z,19.90
2018-05-08T21:42:02.794Z,19.80
2018-05-08T21:44:30.374Z,19.80
2018-05-08T21:46:57.908Z,19.70
2018-05-08T21:49:26.211Z,19.60
2018-05-08T21:51:53.752Z,19.60
2018-05-08T21:54:21.291Z,19.50
2018-05-08T21:56:49.579Z,19.50
2018-05-08T21:59:17.869Z,19.40
2018-05-08T22:01:45.415Z,19.40
2018-05-08T22:04:13.749Z,19.30
2018-05-08T22:06:41.272Z,19.20
2018-05-08T22:09:08.844Z,19.20
2018-05-08T22:11:36.360Z,19.20
2018-05-08T22:14:03.890Z,19.10
2018-05-08T22:16:31.410Z,19.00
2018-05-08T22:18:58.978Z,19.00
2018-05-08T22:21:26.533Z,18.90
2018-05-08T22:23:54.052Z,18.90
2018-05-08T22:26:21.571Z,18.80
2018-05-08T22:28:49.111Z,18.80
2018-05-08T22:31:16.642Z,18.80
2018-05-08T22:33:44.928Z,18.70
2018-05-08T22:36:13.238Z,18.70
2018-05-08T22:38:40.771Z,18.70
2018-05-08T22:41:09.058Z,18.60
2018-05-08T22:43:36.653Z,18.60
2018-05-08T22:46:04.183Z,18.60
2018-05-08T22:48:31.696Z,18.60
2018-05-08T22:50:59.317Z,18.50
2018-05-08T22:53:26.853Z,18.40
2018-05-08T22:55:55.138Z,18.40
2018-05-08T22:58:22.659Z,18.40
2018-05-08T23:00:50.294Z,18.40
2018-05-08T23:03:17.838Z,18.30
2018-05-08T23:05:45.364Z,18.30
2018-05-08T23:08:13.663Z,18.30
2018-05-08T23:10:41.208Z,18.30
2018-05-08T23:13:09.496Z,18.20
2018-05-08T23:15:37.019Z,18.20
2018-05-08T23:18:04.689Z,18.30
2018-05-08T23:20:32.298Z,18.20
2018-05-08T23:22:59.831Z,18.20
2018-05-08T23:25:28.116Z,18.00
2018-05-08T23:27:55.651Z,18.00
2018-05-08T23:30:24.069Z,17.90
2018-05-08T23:32:51.594Z,17.90
2018-05-08T23:35:19.891Z,17.80
2018-05-08T23:37:47.439Z,17.70
2018-05-08T23:40:15.716Z,17.70
2018-05-08T23:42:43.987Z,17.60
2018-05-08T23:45:12.293Z,17.60
2018-05-08T23:47:39.851Z,17.50
2018-05-08T23:50:07.417Z,17.50
2018-05-08T23:52:34.945Z,17.50
2018-05-08T23:55:03.252Z,17.40
2018-05-08T23:57:30.809Z,17.40
2018-05-08T23:59:58.343Z,17.40
